Time;durP1;ratioP1;P1;durP2;ratioP2;P2;SDS_P1;SDS_P2;PMS_P1;PMS_P2;Temp;Humidity;BMP_temperature;BMP_pressure;BME280_temperature;BME280_humidity;BME280_pressure;Samples;Min_cycle;Max_cycle;Signal;HPM_P1;HPM_P2
2022/04/11 00:00:49;;;;;;;1.77;1.40;;;;;;;;;;5068297;28;20205;-65
2022/04/11 00:03:16;;;;;;;2.27;1.70;;;;;;;;;;5057541;28;20245;-64
2022/04/11 00:05:44;;;;;;;1.87;1.47;;;;;;;;;;5065224;28;20186;-64
2022/04/11 00:08:11;;;;;;;2.47;2.00;;;;;;;;;;5058710;28;20217;-63
2022/04/11 00:10:38;;;;;;;1.93;1.40;;;;;;;;;;5071261;28;20464;-64
2022/04/11 00:13:06;;;;;;;2.90;1.67;;;;;;;;;;5060771;28;20287;-66
2022/04/11 00:15:39;;;;;;;2.07;1.87;;;;;;;;;;5063169;28;20241;-65
2022/04/11 00:18:12;;;;;;;1.80;1.50;;;;;;;;;;5049613;28;20209;-64
2022/04/11 00:20:39;;;;;;;1.63;1.40;;;;;;;;;;5051847;28;20228;-63
2022/04/11 00:23:06;;;;;;;2.13;1.70;;;;;;;;;;5069888;28;20217;-65
2022/04/11 00:25:34;;;;;;;2.20;1.73;;;;;;;;;;5067178;28;20250;-63
2022/04/11 00:28:01;;;;;;;2.60;1.70;;;;;;;;;;5070150;28;20734;-64
2022/04/11 00:30:28;;;;;;;2.73;1.67;;;;;;;;;;5067980;28;20201;-64
2022/04/11 00:32:55;;;;;;;3.00;1.60;;;;;;;;;;5076363;28;20202;-65
2022/04/11 00:35:23;;;;;;;1.87;1.53;;;;;;;;;;5069309;28;20224;-65
2022/04/11 00:37:50;;;;;;;1.77;1.67;;;;;;;;;;5061842;28;20198;-64
2022/04/11 00:40:17;;;;;;;2.40;1.80;;;;;;;;;;5067674;28;20208;-64
2022/04/11 00:42:44;;;;;;;1.73;1.63;;;;;;;;;;5068725;28;20296;-64
2022/04/11 00:45:11;;;;;;;2.77;1.33;;;;;;;;;;5067698;28;20693;-64
2022/04/11 00:47:38;;;;;;;1.90;1.70;;;;;;;;;;5065474;28;20202;-63
2022/04/11 00:50:07;;;;;;;2.00;1.60;;;;;;;;;;5064382;28;20871;-65
2022/04/11 00:52:36;;;;;;;1.83;1.67;;;;;;;;;;5072317;28;20201;-65
2022/04/11 00:55:03;;;;;;;2.27;1.50;;;;;;;;;;5051056;28;20197;-64
2022/04/11 00:57:30;;;;;;;2.40;1.90;;;;;;;;;;5064828;28;20208;-64
2022/04/11 00:59:59;;;;;;;1.70;1.30;;;;;;;;;;5065935;28;20823;-64
2022/04/11 01:02:27;;;;;;;3.27;1.90;;;;;;;;;;5059614;28;20241;-64
2022/04/11 01:04:54;;;;;;;2.33;1.87;;;;;;;;;;5065557;28;20229;-64
2022/04/11 01:07:21;;;;;;;2.23;1.80;;;;;;;;;;5048133;28;20240;-64
2022/04/11 01:09:48;;;;;;;2.33;1.43;;;;;;;;;;5062966;28;20459;-64
2022/04/11 01:12:16;;;;;;;2.43;1.90;;;;;;;;;;5068640;28;20200;-64
2022/04/11 01:14:43;;;;;;;2.20;1.70;;;;;;;;;;5070592;28;20279;-63
2022/04/11 01:17:10;;;;;;;1.83;1.37;;;;;;;;;;5048275;28;20605;-65
2022/04/11 01:19:38;;;;;;;2.07;1.40;;;;;;;;;;5064055;28;20193;-64
2022/04/11 01:22:07;;;;;;;1.70;1.40;;;;;;;;;;5065915;28;20266;-65
2022/04/11 01:24:38;;;;;;;1.70;1.33;;;;;;;;;;5048797;28;20202;-63
2022/04/11 01:27:07;;;;;;;1.93;1.57;;;;;;;;;;5062737;28;20756;-64
2022/04/11 01:29:35;;;;;;;2.17;1.47;;;;;;;;;;5063454;28;20242;-65
2022/04/11 01:32:03;;;;;;;1.97;1.77;;;;;;;;;;5065065;28;20189;-66
2022/04/11 01:34:31;;;;;;;3.03;1.80;;;;;;;;;;5064945;28;20194;-64
2022/04/11 01:36:58;;;;;;;2.50;1.47;;;;;;;;;;5065839;28;20194;-64
2022/04/11 01:39:25;;;;;;;2.30;1.53;;;;;;;;;;5053312;28;20268;-64
2022/04/11 01:41:52;;;;;;;1.53;1.30;;;;;;;;;;5054748;28;20201;-63
2022/04/11 01:44:20;;;;;;;1.63;1.53;;;;;;;;;;5065881;28;20665;-66
2022/04/11 01:46:50;;;;;;;1.87;1.50;;;;;;;;;;5066245;28;20210;-64
2022/04/11 01:49:17;;;;;;;2.37;1.80;;;;;;;;;;5078007;28;20204;-63
2022/04/11 01:51:44;;;;;;;2.00;1.43;;;;;;;;;;5063562;28;20201;-64
2022/04/11 01:54:11;;;;;;;1.97;1.80;;;;;;;;;;5066134;28;20266;-64
2022/04/11 01:56:39;;;;;;;1.80;1.70;;;;;;;;;;5065119;28;20201;-66
2022/04/11 01:59:06;;;;;;;2.00;1.53;;;;;;;;;;5065365;28;20193;-64
2022/04/11 02:01:33;;;;;;;2.23;1.40;;;;;;;;;;5059786;28;20197;-64
2022/04/11 02:04:00;;;;;;;1.80;1.60;;;;;;;;;;5065585;28;20245;-63
2022/04/11 02:06:28;;;;;;;2.13;1.73;;;;;;;;;;5048671;28;20194;-65
2022/04/11 02:08:55;;;;;;;1.67;1.53;;;;;;;;;;5077563;28;20194;-64
2022/04/11 02:11:22;;;;;;;1.90;1.60;;;;;;;;;;5078432;28;20197;-66
2022/04/11 02:13:49;;;;;;;2.30;1.40;;;;;;;;;;5054129;28;20552;-63
2022/04/11 02:16:17;;;;;;;2.07;1.50;;;;;;;;;;5066933;28;20213;-65
2022/04/11 02:18:44;;;;;;;1.30;1.20;;;;;;;;;;5066064;28;20196;-65
2022/04/11 02:21:11;;;;;;;2.20;2.00;;;;;;;;;;5065878;28;20198;-64
2022/04/11 02:23:38;;;;;;;1.50;1.40;;;;;;;;;;5067001;28;20283;-65
2022/04/11 02:26:06;;;;;;;2.00;1.40;;;;;;;;;;5065852;28;20213;-64
2022/04/11 02:28:33;;;;;;;1.87;1.37;;;;;;;;;;5069899;28;20254;-64
2022/04/11 02:31:00;;;;;;;1.93;1.67;;;;;;;;;;5051976;28;20201;-64
2022/04/11 02:33:28;;;;;;;2.60;1.67;;;;;;;;;;5069870;28;20205;-63
2022/04/11 02:35:55;;;;;;;2.53;1.73;;;;;;;;;;5068812;28;20316;-64
2022/04/11 02:38:22;;;;;;;1.90;1.67;;;;;;;;;;5066220;28;20217;-64
2022/04/11 02:40:49;;;;;;;2.77;1.57;;;;;;;;;;5053340;28;20194;-66
2022/04/11 02:43:16;;;;;;;2.73;2.00;;;;;;;;;;5051468;28;20278;-65
2022/04/11 02:45:43;;;;;;;1.70;1.60;;;;;;;;;;5066935;28;20275;-63
2022/04/11 02:48:11;;;;;;;1.70;1.60;;;;;;;;;;5069240;28;20185;-64
2022/04/11 02:50:38;;;;;;;1.73;1.63;;;;;;;;;;5048532;28;20675;-65
2022/04/11 02:53:06;;;;;;;2.00;1.77;;;;;;;;;;5032746;28;20194;-65
2022/04/11 02:55:33;;;;;;;2.30;1.50;;;;;;;;;;5066963;28;20198;-62
2022/04/11 02:58:00;;;;;;;1.73;1.33;;;;;;;;;;5051875;28;20259;-64
2022/04/11 03:00:27;;;;;;;1.80;1.70;;;;;;;;;;5069398;28;20210;-65
2022/04/11 03:02:54;;;;;;;1.67;1.50;;;;;;;;;;5045032;28;20542;-65
2022/04/11 03:05:21;;;;;;;2.60;1.93;;;;;;;;;;5067360;28;20186;-65
2022/04/11 03:07:48;;;;;;;2.90;1.70;;;;;;;;;;5066281;28;20190;-64
2022/04/11 03:10:17;;;;;;;2.93;2.10;;;;;;;;;;5068004;28;20655;-63
2022/04/11 03:12:44;;;;;;;1.80;1.50;;;;;;;;;;5043341;28;20623;-65
2022/04/11 03:15:11;;;;;;;1.80;1.40;;;;;;;;;;5061344;28;20627;-64
2022/04/11 03:17:38;;;;;;;2.30;1.70;;;;;;;;;;5067265;28;20194;-65
2022/04/11 03:20:06;;;;;;;2.37;1.70;;;;;;;;;;5069454;28;20189;-64
2022/04/11 03:22:33;;;;;;;2.07;1.87;;;;;;;;;;5068880;28;20198;-64
2022/04/11 03:25:00;;;;;;;2.10;1.80;;;;;;;;;;5069017;28;20488;-65
2022/04/11 03:27:27;;;;;;;2.57;1.60;;;;;;;;;;5065288;28;20210;-65
2022/04/11 03:29:54;;;;;;;4.03;1.93;;;;;;;;;;5067162;28;20243;-64
2022/04/11 03:32:22;;;;;;;3.00;1.70;;;;;;;;;;5068358;28;20206;-63
2022/04/11 03:34:52;;;;;;;2.17;1.90;;;;;;;;;;5068647;28;20263;-64
2022/04/11 03:37:20;;;;;;;2.20;1.83;;;;;;;;;;5068413;28;20694;-65
2022/04/11 03:39:47;;;;;;;3.30;1.67;;;;;;;;;;5045025;28;20221;-64
2022/04/11 03:42:14;;;;;;;2.00;1.80;;;;;;;;;;5081185;28;20212;-64
2022/04/11 03:44:42;;;;;;;3.03;2.07;;;;;;;;;;5048668;28;20674;-64
2022/04/11 03:47:09;;;;;;;1.67;1.57;;;;;;;;;;5072946;28;20198;-64
2022/04/11 03:49:36;;;;;;;2.67;2.00;;;;;;;;;;5052260;28;20200;-64
2022/04/11 03:52:04;;;;;;;1.50;1.40;;;;;;;;;;5053881;28;20255;-64
2022/04/11 03:54:31;;;;;;;2.17;1.67;;;;;;;;;;5068150;28;20623;-64
2022/04/11 03:56:58;;;;;;;1.50;1.40;;;;;;;;;;5051135;28;20267;-64
2022/04/11 03:59:25;;;;;;;2.30;2.10;;;;;;;;;;5044170;28;20198;-66
2022/04/11 04:01:52;;;;;;;1.60;1.40;;;;;;;;;;5061736;28;20210;-64
2022/04/11 04:04:20;;;;;;;1.90;1.80;;;;;;;;;;5068166;28;20251;-65
2022/04/11 04:06:47;;;;;;;2.43;1.50;;;;;;;;;;5068520;28;20645;-65
2022/04/11 04:09:14;;;;;;;2.00;1.53;;;;;;;;;;5070295;28;20206;-65
2022/04/11 04:11:41;;;;;;;2.80;2.20;;;;;;;;;;5074886;28;20194;-64
2022/04/11 04:14:08;;;;;;;2.00;1.90;;;;;;;;;;5065115;28;20271;-65
2022/04/11 04:16:37;;;;;;;1.83;1.37;;;;;;;;;;5070466;28;20946;-65
2022/04/11 04:19:04;;;;;;;1.93;1.83;;;;;;;;;;5088016;28;20196;-64
2022/04/11 04:21:31;;;;;;;2.17;1.60;;;;;;;;;;5077366;28;20282;-65
2022/04/11 04:23:59;;;;;;;1.50;1.40;;;;;;;;;;5067771;28;20275;-64
2022/04/11 04:26:26;;;;;;;1.37;1.27;;;;;;;;;;5046765;28;20206;-65
2022/04/11 04:28:53;;;;;;;1.90;1.70;;;;;;;;;;5068113;28;20189;-64
2022/04/11 04:31:20;;;;;;;1.60;1.47;;;;;;;;;;5067626;28;20627;-64
2022/04/11 04:33:47;;;;;;;2.07;1.90;;;;;;;;;;5065247;28;20205;-65
2022/04/11 04:36:14;;;;;;;1.70;1.60;;;;;;;;;;5067723;28;20204;-63
2022/04/11 04:38:41;;;;;;;1.60;1.50;;;;;;;;;;5063975;28;20230;-64
2022/04/11 04:41:14;;;;;;;1.80;1.70;;;;;;;;;;5070813;28;20542;-65
2022/04/11 04:43:48;;;;;;;1.83;1.57;;;;;;;;;;5037333;28;20203;-63
2022/04/11 04:46:16;;;;;;;1.57;1.47;;;;;;;;;;5067989;28;20196;-66
2022/04/11 04:48:43;;;;;;;1.53;1.30;;;;;;;;;;5069061;28;20201;-66
2022/04/11 04:51:13;;;;;;;2.30;1.40;;;;;;;;;;5066572;28;20210;-66
2022/04/11 04:53:44;;;;;;;1.77;1.67;;;;;;;;;;5048005;28;20693;-67
2022/04/11 04:56:11;;;;;;;1.67;1.57;;;;;;;;;;5067741;28;20201;-66
2022/04/11 04:58:38;;;;;;;2.50;1.60;;;;;;;;;;5048703;28;20263;-67
2022/04/11 05:01:06;;;;;;;2.60;1.37;;;;;;;;;;5049632;28;20648;-68
2022/04/11 05:03:33;;;;;;;1.80;1.70;;;;;;;;;;5060825;28;20237;-67
2022/04/11 05:06:00;;;;;;;2.80;1.63;;;;;;;;;;5057573;28;20235;-66
2022/04/11 05:08:27;;;;;;;1.83;1.50;;;;;;;;;;5067290;28;20224;-67
2022/04/11 05:10:54;;;;;;;2.07;1.67;;;;;;;;;;5057868;28;20282;-67
2022/04/11 05:13:22;;;;;;;1.90;1.70;;;;;;;;;;5072753;28;20189;-66
2022/04/11 05:15:50;;;;;;;1.83;1.70;;;;;;;;;;5062278;28;20213;-66
2022/04/11 05:18:17;;;;;;;1.80;1.70;;;;;;;;;;5079386;28;20670;-66
2022/04/11 05:20:44;;;;;;;2.20;2.00;;;;;;;;;;5066239;28;20251;-66
2022/04/11 05:23:11;;;;;;;3.63;2.40;;;;;;;;;;5066746;28;20194;-66
2022/04/11 05:25:38;;;;;;;2.47;2.10;;;;;;;;;;5060855;28;20217;-67
2022/04/11 05:28:05;;;;;;;2.40;2.20;;;;;;;;;;5066627;28;20615;-66
2022/04/11 05:30:35;;;;;;;2.37;1.80;;;;;;;;;;5065753;28;20212;-66
2022/04/11 05:33:03;;;;;;;2.73;2.13;;;;;;;;;;5066232;28;20189;-66
2022/04/11 05:35:30;;;;;;;3.03;2.13;;;;;;;;;;5039644;28;20197;-67
2022/04/11 05:37:57;;;;;;;2.87;2.00;;;;;;;;;;5077286;28;20665;-67
2022/04/11 05:40:25;;;;;;;2.43;2.23;;;;;;;;;;5066413;28;20197;-66
2022/04/11 05:42:52;;;;;;;2.60;2.27;;;;;;;;;;5065801;28;20198;-67
2022/04/11 05:45:19;;;;;;;2.40;2.20;;;;;;;;;;5066018;28;20296;-66
2022/04/11 05:47:46;;;;;;;2.97;2.57;;;;;;;;;;5046391;28;20254;-67
2022/04/11 05:50:13;;;;;;;4.77;2.63;;;;;;;;;;5062804;28;20210;-66
2022/04/11 05:52:40;;;;;;;3.67;2.27;;;;;;;;;;5065928;28;20675;-66
2022/04/11 05:55:08;;;;;;;3.93;2.57;;;;;;;;;;5067187;28;20877;-66
2022/04/11 05:57:35;;;;;;;6.60;3.00;;;;;;;;;;5043526;28;20202;-66
2022/04/11 06:00:02;;;;;;;5.97;2.93;;;;;;;;;;5055562;28;20585;-67
2022/04/11 06:02:29;;;;;;;6.60;3.00;;;;;;;;;;5062018;28;20221;-66
2022/04/11 06:04:57;;;;;;;6.47;3.67;;;;;;;;;;5065102;28;20227;-66
2022/04/11 06:07:26;;;;;;;7.30;3.83;;;;;;;;;;5065779;28;20212;-66
2022/04/11 06:09:55;;;;;;;5.23;2.97;;;;;;;;;;5063352;28;20201;-67
2022/04/11 06:12:24;;;;;;;5.07;3.47;;;;;;;;;;5065497;28;20193;-67
2022/04/11 06:14:53;;;;;;;8.63;3.67;;;;;;;;;;5062603;28;20720;-67
2022/04/11 06:17:23;;;;;;;6.53;3.27;;;;;;;;;;5079786;28;20246;-67
2022/04/11 06:19:51;;;;;;;5.83;3.47;;;;;;;;;;5064069;28;20752;-66
2022/04/11 06:22:18;;;;;;;6.87;3.50;;;;;;;;;;5065725;28;20198;-66
2022/04/11 06:24:45;;;;;;;6.23;3.67;;;;;;;;;;5043942;28;20213;-67
2022/04/11 06:27:13;;;;;;;4.70;3.37;;;;;;;;;;5057284;28;20286;-67
2022/04/11 06:29:40;;;;;;;7.50;2.93;;;;;;;;;;5061761;28;20606;-66
2022/04/11 06:32:07;;;;;;;7.10;3.40;;;;;;;;;;5061097;28;20247;-66
2022/04/11 06:34:35;;;;;;;9.27;4.37;;;;;;;;;;5063836;28;20675;-67
2022/04/11 06:37:03;;;;;;;5.73;3.73;;;;;;;;;;5064590;28;20194;-66
2022/04/11 06:39:30;;;;;;;9.50;4.07;;;;;;;;;;5058187;28;20214;-66
2022/04/11 06:41:57;;;;;;;11.10;4.43;;;;;;;;;;5041046;28;20186;-67
2022/04/11 06:44:25;;;;;;;7.00;4.10;;;;;;;;;;5063884;28;20205;-67
2022/04/11 06:46:52;;;;;;;6.13;3.73;;;;;;;;;;5060535;28;20205;-67
2022/04/11 06:49:19;;;;;;;7.03;4.10;;;;;;;;;;5064480;28;20205;-67
2022/04/11 06:51:46;;;;;;;7.80;3.77;;;;;;;;;;5057437;28;20217;-66
2022/04/11 06:54:13;;;;;;;7.13;3.20;;;;;;;;;;5064551;28;20202;-67
2022/04/11 06:56:40;;;;;;;7.40;3.90;;;;;;;;;;5063580;28;20205;-68
2022/04/11 06:59:07;;;;;;;8.07;3.37;;;;;;;;;;5063289;28;20248;-66
2022/04/11 07:01:35;;;;;;;4.60;3.07;;;;;;;;;;5059874;28;20668;-68
2022/04/11 07:04:02;;;;;;;6.93;3.27;;;;;;;;;;5045266;28;20229;-66
2022/04/11 07:06:29;;;;;;;4.60;2.63;;;;;;;;;;5056488;28;20189;-68
2022/04/11 07:08:56;;;;;;;84.20;20.00;;;;;;;;;;5062167;28;20900;-65
2022/04/11 07:11:23;;;;;;;75.10;18.13;;;;;;;;;;5066911;28;20198;-65
2022/04/11 07:13:50;;;;;;;65.00;16.77;;;;;;;;;;5059422;28;20255;-66
2022/04/11 07:16:18;;;;;;;61.00;15.60;;;;;;;;;;5044844;28;20272;-66
2022/04/11 07:18:45;;;;;;;52.67;14.00;;;;;;;;;;5042857;28;20533;-64
2022/04/11 07:21:12;;;;;;;41.27;12.63;;;;;;;;;;5059418;28;20194;-66
2022/04/11 07:23:39;;;;;;;41.63;12.07;;;;;;;;;;5061657;28;20190;-66
2022/04/11 07:26:06;;;;;;;34.30;10.57;;;;;;;;;;5057972;28;20272;-65
2022/04/11 07:28:34;;;;;;;35.87;11.77;;;;;;;;;;5064087;28;20202;-66
2022/04/11 07:31:01;;;;;;;32.20;10.33;;;;;;;;;;5050138;28;20201;-66
2022/04/11 07:33:33;;;;;;;29.00;9.70;;;;;;;;;;5073602;28;20850;-65
2022/04/11 07:36:00;;;;;;;24.30;8.50;;;;;;;;;;5074797;28;20212;-64
2022/04/11 07:38:33;;;;;;;22.83;8.37;;;;;;;;;;5064587;28;20529;-64
2022/04/11 07:41:00;;;;;;;21.10;7.23;;;;;;;;;;5076937;28;20682;-63
2022/04/11 07:43:27;;;;;;;19.37;7.33;;;;;;;;;;5079206;28;20715;-67
2022/04/11 07:45:54;;;;;;;20.43;7.20;;;;;;;;;;5066613;28;20717;-65
2022/04/11 07:48:22;;;;;;;16.23;6.03;;;;;;;;;;5065271;28;20614;-64
2022/04/11 07:50:49;;;;;;;15.93;6.10;;;;;;;;;;5063657;28;21010;-65
2022/04/11 07:53:17;;;;;;;17.97;6.00;;;;;;;;;;5074041;28;20220;-65
2022/04/11 07:55:44;;;;;;;15.03;6.17;;;;;;;;;;5045795;28;20217;-64
2022/04/11 07:58:12;;;;;;;14.93;5.57;;;;;;;;;;5066030;28;20201;-66
2022/04/11 08:00:42;;;;;;;11.17;4.93;;;;;;;;;;5046972;28;20220;-64
2022/04/11 08:03:09;;;;;;;14.67;5.47;;;;;;;;;;5044382;28;20580;-65
2022/04/11 08:05:36;;;;;;;13.07;5.33;;;;;;;;;;5064591;28;20751;-66
2022/04/11 08:08:04;;;;;;;11.63;4.77;;;;;;;;;;5064512;28;20243;-66
2022/04/11 08:10:32;;;;;;;9.23;4.50;;;;;;;;;;5048425;28;20201;-67
2022/04/11 08:13:00;;;;;;;11.70;5.00;;;;;;;;;;5067595;28;20201;-67
2022/04/11 08:15:28;;;;;;;12.90;4.73;;;;;;;;;;5062007;28;20213;-66
2022/04/11 08:17:56;;;;;;;8.00;3.90;;;;;;;;;;5072590;28;20216;-66
2022/04/11 08:20:24;;;;;;;9.37;3.67;;;;;;;;;;5066337;28;20212;-64
2022/04/11 08:22:51;;;;;;;8.80;3.30;;;;;;;;;;5065958;28;20210;-66
2022/04/11 08:25:18;;;;;;;9.93;3.47;;;;;;;;;;5066970;28;20217;-66
2022/04/11 08:27:45;;;;;;;7.03;3.13;;;;;;;;;;5064456;28;20219;-64
2022/04/11 08:30:13;;;;;;;6.00;3.03;;;;;;;;;;5067089;28;20189;-66
2022/04/11 08:32:41;;;;;;;7.43;3.17;;;;;;;;;;5073268;28;20201;-66
2022/04/11 08:35:09;;;;;;;7.53;2.80;;;;;;;;;;5064770;28;20198;-65
2022/04/11 08:37:42;;;;;;;3.97;2.43;;;;;;;;;;5058724;28;20213;-64
2022/04/11 08:40:13;;;;;;;5.60;2.67;;;;;;;;;;5065371;28;20660;-65
2022/04/11 08:42:41;;;;;;;6.53;2.67;;;;;;;;;;5046086;28;20205;-66
2022/04/11 08:45:13;;;;;;;5.40;3.03;;;;;;;;;;5066212;28;20226;-66
2022/04/11 08:47:41;;;;;;;5.97;2.90;;;;;;;;;;5064191;28;20664;-67
2022/04/11 08:50:09;;;;;;;4.97;2.57;;;;;;;;;;5063110;28;20205;-65
2022/04/11 08:52:37;;;;;;;5.83;2.57;;;;;;;;;;5065640;28;20283;-65
2022/04/11 08:55:04;;;;;;;4.10;2.60;;;;;;;;;;5066924;28;20267;-65
2022/04/11 08:57:32;;;;;;;4.53;2.40;;;;;;;;;;5065340;28;20206;-65
2022/04/11 09:00:10;;;;;;;4.17;2.70;;;;;;;;;;5071400;28;20294;-65
2022/04/11 09:02:37;;;;;;;4.33;2.30;;;;;;;;;;5060817;28;20221;-65
2022/04/11 09:05:05;;;;;;;3.57;1.97;;;;;;;;;;5067373;28;20232;-67
2022/04/11 09:07:51;;;;;;;5.33;2.13;;;;;;;;;;5047383;28;20580;-66
2022/04/11 09:10:19;;;;;;;5.50;2.10;;;;;;;;;;5072424;28;20189;-65
2022/04/11 09:12:47;;;;;;;3.37;2.03;;;;;;;;;;5066450;28;20875;-65
2022/04/11 09:15:15;;;;;;;4.67;2.20;;;;;;;;;;5062777;28;20221;-65
2022/04/11 09:17:43;;;;;;;4.23;2.03;;;;;;;;;;5062520;28;20200;-65
2022/04/11 09:20:12;;;;;;;3.30;2.00;;;;;;;;;;5065678;28;20190;-65
2022/04/11 09:22:41;;;;;;;4.27;1.83;;;;;;;;;;5062156;28;20204;-64
2022/04/11 09:25:09;;;;;;;4.53;2.20;;;;;;;;;;5069883;28;20226;-66
2022/04/11 09:27:37;;;;;;;2.83;2.10;;;;;;;;;;5060032;28;20240;-65
2022/04/11 09:30:17;;;;;;;2.93;1.90;;;;;;;;;;5060664;28;20205;-65
2022/04/11 09:32:52;;;;;;;4.27;1.70;;;;;;;;;;5064833;28;20320;-65
2022/04/11 09:35:26;;;;;;;3.27;1.90;;;;;;;;;;5056405;28;20204;-64
2022/04/11 09:38:11;;;;;;;4.63;1.60;;;;;;;;;;5037066;28;20211;-65
2022/04/11 09:40:40;;;;;;;4.67;2.07;;;;;;;;;;5065697;28;20234;-68
2022/04/11 09:43:08;;;;;;;2.83;1.77;;;;;;;;;;5068316;28;20201;-67
2022/04/11 09:45:40;;;;;;;3.87;2.07;;;;;;;;;;5062517;28;20221;-66
2022/04/11 09:48:08;;;;;;;3.10;2.10;;;;;;;;;;5066316;28;20209;-66
2022/04/11 09:50:36;;;;;;;2.73;2.03;;;;;;;;;;5061181;28;20270;-66
2022/04/11 09:53:14;;;;;;;3.63;1.97;;;;;;;;;;5065703;28;20611;-66
2022/04/11 09:55:42;;;;;;;4.67;2.03;;;;;;;;;;5062698;28;20217;-65
2022/04/11 09:58:10;;;;;;;2.70;1.80;;;;;;;;;;5066958;28;20201;-66
2022/04/11 10:00:38;;;;;;;2.80;1.67;;;;;;;;;;5046302;28;20228;-64
2022/04/11 10:03:06;;;;;;;2.40;1.57;;;;;;;;;;5060262;28;20221;-64
2022/04/11 10:05:34;;;;;;;3.73;2.03;;;;;;;;;;5065143;28;20217;-65
2022/04/11 10:08:11;;;;;;;4.37;1.50;;;;;;;;;;5068200;28;20202;-64
2022/04/11 10:10:40;;;;;;;4.43;1.90;;;;;;;;;;5047950;28;20201;-64
2022/04/11 10:13:14;;;;;;;4.13;1.90;;;;;;;;;;5065670;28;20185;-65
2022/04/11 10:15:42;;;;;;;2.53;1.57;;;;;;;;;;5063692;28;20216;-64
2022/04/11 10:18:16;;;;;;;1.63;1.40;;;;;;;;;;5048548;28;20213;-65
2022/04/11 10:20:44;;;;;;;2.23;1.50;;;;;;;;;;5057089;28;20531;-66
2022/04/11 10:23:34;;;;;;;2.33;1.27;;;;;;;;;;5056861;28;20205;-64
2022/04/11 10:26:03;;;;;;;4.17;1.70;;;;;;;;;;5062291;28;20233;-63
2022/04/11 10:28:31;;;;;;;2.93;1.77;;;;;;;;;;5065253;28;20197;-65
2022/04/11 10:31:05;;;;;;;5.73;1.60;;;;;;;;;;5059792;28;20210;-66
2022/04/11 10:33:59;;;;;;;2.20;1.43;;;;;;;;;;5059351;28;20732;-65
2022/04/11 10:36:55;;;;;;;2.23;1.43;;;;;;;;;;5064365;28;20573;-65
2022/04/11 10:39:24;;;;;;;2.47;1.40;;;;;;;;;;5055185;28;20205;-65
2022/04/11 10:41:57;;;;;;;2.97;1.40;;;;;;;;;;5058100;28;20201;-65
2022/04/11 10:44:31;;;;;;;4.17;1.40;;;;;;;;;;5068063;28;20203;-65
2022/04/11 10:47:18;;;;;;;2.03;1.57;;;;;;;;;;5050097;28;20223;-65
2022/04/11 10:49:47;;;;;;;2.67;1.60;;;;;;;;;;5057952;28;20587;-64
2022/04/11 10:52:28;;;;;;;2.60;1.20;;;;;;;;;;5069106;28;20255;-65
2022/04/11 10:55:04;;;;;;;2.37;1.37;;;;;;;;;;5068977;28;20509;-64
2022/04/11 10:57:38;;;;;;;1.40;1.17;;;;;;;;;;5061459;28;20588;-65
2022/04/11 11:00:25;;;;;;;2.27;1.43;;;;;;;;;;5068897;28;20205;-62
2022/04/11 11:02:52;;;;;;;2.30;1.60;;;;;;;;;;5054267;28;20210;-62
2022/04/11 11:05:24;;;;;;;1.43;1.23;;;;;;;;;;5070614;28;20299;-63
2022/04/11 11:08:14;;;;;;;2.43;1.60;;;;;;;;;;5039642;28;21092;-66
2022/04/11 11:10:46;;;;;;;2.40;1.43;;;;;;;;;;5061059;28;20400;-63
2022/04/11 11:13:32;;;;;;;2.70;1.23;;;;;;;;;;5043095;28;20236;-64
2022/04/11 11:15:59;;;;;;;2.47;1.50;;;;;;;;;;5063955;28;20268;-65
2022/04/11 11:18:52;;;;;;;2.97;1.50;;;;;;;;;;5065756;28;20244;-64
2022/04/11 11:21:19;;;;;;;1.37;1.27;;;;;;;;;;5046134;28;20205;-65
2022/04/11 11:24:06;;;;;;;4.60;1.43;;;;;;;;;;5067353;28;20722;-67
2022/04/11 11:26:40;;;;;;;1.83;1.60;;;;;;;;;;5058249;28;20307;-63
2022/04/11 11:29:17;;;;;;;2.40;1.53;;;;;;;;;;5065207;28;20202;-65
2022/04/11 11:31:44;;;;;;;2.50;1.40;;;;;;;;;;5065002;28;20197;-65
2022/04/11 11:34:12;;;;;;;2.70;1.50;;;;;;;;;;5066274;28;20251;-64
2022/04/11 11:36:40;;;;;;;3.47;1.43;;;;;;;;;;5067712;28;20201;-65
2022/04/11 11:39:19;;;;;;;2.60;1.70;;;;;;;;;;5046497;28;20252;-64
2022/04/11 11:41:47;;;;;;;2.90;1.50;;;;;;;;;;5064119;28;20201;-64
2022/04/11 11:44:15;;;;;;;2.03;1.30;;;;;;;;;;5067676;28;20205;-62
2022/04/11 11:46:48;;;;;;;1.83;1.67;;;;;;;;;;5056724;28;20684;-63
2022/04/11 11:49:15;;;;;;;4.70;1.47;;;;;;;;;;5063026;28;20670;-63
2022/04/11 11:51:42;;;;;;;1.83;1.33;;;;;;;;;;5056046;28;20217;-64
2022/04/11 11:54:10;;;;;;;2.50;1.40;;;;;;;;;;5066618;28;20210;-64
2022/04/11 11:56:44;;;;;;;2.67;1.77;;;;;;;;;;5075847;28;20198;-67
2022/04/11 11:59:11;;;;;;;1.67;1.57;;;;;;;;;;5065502;28;20197;-65
2022/04/11 12:01:39;;;;;;;4.80;1.60;;;;;;;;;;5041948;28;20205;-65
2022/04/11 12:04:19;;;;;;;1.63;1.53;;;;;;;;;;5065583;28;20245;-64
2022/04/11 12:06:53;;;;;;;8.17;1.70;;;;;;;;;;5066190;28;20202;-65
2022/04/11 12:09:20;;;;;;;2.73;1.73;;;;;;;;;;5062377;28;20190;-65
2022/04/11 12:11:48;;;;;;;4.27;1.90;;;;;;;;;;5062471;28;20212;-63
2022/04/11 12:14:15;;;;;;;2.23;1.63;;;;;;;;;;5042296;28;20213;-63
2022/04/11 12:16:56;;;;;;;5.27;1.80;;;;;;;;;;5052890;28;20232;-63
2022/04/11 12:19:35;;;;;;;1.53;1.43;;;;;;;;;;5060929;28;20205;-64
2022/04/11 12:22:10;;;;;;;1.93;1.70;;;;;;;;;;5039804;28;20217;-63
2022/04/11 12:24:37;;;;;;;2.67;1.60;;;;;;;;;;5066906;28;20212;-64
2022/04/11 12:27:06;;;;;;;3.43;1.70;;;;;;;;;;5055306;28;21956;-62
2022/04/11 12:29:40;;;;;;;5.23;1.70;;;;;;;;;;5059545;28;20190;-62
2022/04/11 12:32:14;;;;;;;6.20;1.60;;;;;;;;;;5065230;28;20201;-65
2022/04/11 12:34:43;;;;;;;4.10;1.70;;;;;;;;;;5067190;28;20249;-64
2022/04/11 12:37:11;;;;;;;1.90;1.03;;;;;;;;;;5053490;28;20190;-63
2022/04/11 12:39:49;;;;;;;2.17;1.47;;;;;;;;;;5053212;28;20221;-65
2022/04/11 12:42:20;;;;;;;2.63;1.23;;;;;;;;;;5042447;28;20190;-64
2022/04/11 12:44:47;;;;;;;1.63;1.40;;;;;;;;;;5072068;28;20212;-63
2022/04/11 12:47:20;;;;;;;1.77;1.33;;;;;;;;;;5042008;28;20245;-64
2022/04/11 12:49:52;;;;;;;1.77;1.27;;;;;;;;;;5059336;28;20204;-63
2022/04/11 12:52:20;;;;;;;1.60;1.47;;;;;;;;;;5070585;28;20201;-64
2022/04/11 12:54:48;;;;;;;1.30;1.20;;;;;;;;;;5030288;28;20198;-65
2022/04/11 12:57:21;;;;;;;2.07;1.40;;;;;;;;;;5063915;28;20957;-63
2022/04/11 12:59:49;;;;;;;4.07;1.63;;;;;;;;;;5056000;28;20202;-64
2022/04/11 13:02:19;;;;;;;3.67;1.67;;;;;;;;;;5062047;28;20221;-63
2022/04/11 13:04:52;;;;;;;2.77;1.27;;;;;;;;;;5066371;28;20770;-62
2022/04/11 13:07:39;;;;;;;2.90;1.60;;;;;;;;;;5038248;28;20235;-63
2022/04/11 13:10:23;;;;;;;2.33;1.07;;;;;;;;;;5073385;28;20181;-64
2022/04/11 13:13:24;;;;;;;2.40;1.50;;;;;;;;;;5049488;28;20209;-63
2022/04/11 13:18:37;;;;;;;1.43;1.30;;;;;;;;;;5046413;28;20193;-63
2022/04/11 13:21:04;;;;;;;2.77;1.50;;;;;;;;;;5049195;28;20233;-64
2022/04/11 13:23:32;;;;;;;2.07;1.43;;;;;;;;;;5063353;28;20226;-63
2022/04/11 13:25:59;;;;;;;2.20;1.43;;;;;;;;;;5063205;28;20260;-63
2022/04/11 13:28:27;;;;;;;2.70;1.50;;;;;;;;;;5064708;28;20182;-63
2022/04/11 13:30:55;;;;;;;2.47;1.60;;;;;;;;;;5065815;28;20208;-64
2022/04/11 13:33:22;;;;;;;1.70;1.10;;;;;;;;;;5048214;28;20208;-64
2022/04/11 13:35:50;;;;;;;2.17;1.50;;;;;;;;;;5062136;28;20189;-64
2022/04/11 13:38:17;;;;;;;3.20;1.40;;;;;;;;;;5061579;28;20215;-65
2022/04/11 13:40:44;;;;;;;3.03;1.40;;;;;;;;;;5066899;28;20186;-66
2022/04/11 13:43:12;;;;;;;3.07;1.13;;;;;;;;;;5068555;28;20194;-65
2022/04/11 13:45:44;;;;;;;5.47;1.77;;;;;;;;;;5064304;28;20262;-64
2022/04/11 13:48:11;;;;;;;2.00;1.43;;;;;;;;;;5044940;28;20283;-65
2022/04/11 13:50:39;;;;;;;1.60;1.27;;;;;;;;;;5061925;28;20220;-63
2022/04/11 13:53:06;;;;;;;1.37;1.10;;;;;;;;;;5064846;28;20190;-62
2022/04/11 13:55:34;;;;;;;1.10;1.00;;;;;;;;;;5045335;28;20195;-62
2022/04/11 13:58:06;;;;;;;1.97;1.10;;;;;;;;;;5064468;28;20194;-62
2022/04/11 14:00:39;;;;;;;1.53;1.10;;;;;;;;;;5059770;28;20663;-64
2022/04/11 14:03:12;;;;;;;1.20;1.10;;;;;;;;;;5058812;28;20197;-64
2022/04/11 14:05:42;;;;;;;2.33;1.20;;;;;;;;;;5061636;28;20190;-64
2022/04/11 14:08:10;;;;;;;1.50;1.30;;;;;;;;;;5046183;28;20201;-62
2022/04/11 14:10:37;;;;;;;2.13;1.30;;;;;;;;;;5063646;28;20203;-64
2022/04/11 14:13:04;;;;;;;2.97;1.43;;;;;;;;;;5061594;28;20641;-64
2022/04/11 14:15:31;;;;;;;1.73;1.60;;;;;;;;;;5062675;28;20198;-64
2022/04/11 14:17:59;;;;;;;2.03;1.73;;;;;;;;;;5060354;28;20660;-65
2022/04/11 14:20:26;;;;;;;2.33;1.40;;;;;;;;;;5058296;28;20698;-65
2022/04/11 14:22:53;;;;;;;1.97;1.77;;;;;;;;;;5062956;28;20203;-64
2022/04/11 14:25:21;;;;;;;2.47;1.80;;;;;;;;;;5062754;28;20633;-66
2022/04/11 14:28:05;;;;;;;2.40;1.40;;;;;;;;;;5064484;28;20224;-64
2022/04/11 14:30:40;;;;;;;2.80;1.83;;;;;;;;;;5066519;28;20205;-64
2022/04/11 14:33:08;;;;;;;6.67;1.77;;;;;;;;;;5066527;28;20198;-63
2022/04/11 14:35:35;;;;;;;1.50;1.40;;;;;;;;;;5063776;28;20216;-65
2022/04/11 14:38:03;;;;;;;1.73;1.50;;;;;;;;;;5067151;28;20255;-65
2022/04/11 14:40:30;;;;;;;2.50;1.60;;;;;;;;;;5063754;28;20218;-65
2022/04/11 14:42:57;;;;;;;3.70;1.80;;;;;;;;;;5062479;28;20239;-65
2022/04/11 14:45:25;;;;;;;2.43;1.77;;;;;;;;;;5067459;28;20192;-64
2022/04/11 14:47:53;;;;;;;4.77;1.60;;;;;;;;;;5066164;28;20228;-64
2022/04/11 14:50:21;;;;;;;1.60;1.50;;;;;;;;;;5064895;28;20206;-65
2022/04/11 14:52:48;;;;;;;2.60;1.83;;;;;;;;;;5063879;28;20228;-66
2022/04/11 14:55:29;;;;;;;2.90;1.40;;;;;;;;;;5052059;28;20677;-64